Time;durP1;ratioP1;P1;durP2;ratioP2;P2;SDS_P1;SDS_P2;PMS_P1;PMS_P2;Temp;Humidity;BMP_temperature;BMP_pressure;BME280_temperature;BME280_humidity;BME280_pressure;Samples;Min_cycle;Max_cycle;Signal;HPM_P1;HPM_P2
2023/01/17 00:01:13;;;;;;;16.67;11.10;;;17.10;80.70;;;17.83;46.89;96068.44;5090357;28;20042;-81
2023/01/17 00:11:58;;;;;;;19.90;10.20;;;17.00;80.60;;;17.77;47.12;96037.09;5111550;28;20035;-81
2023/01/17 00:14:26;;;;;;;18.35;9.82;;;17.00;80.90;;;17.80;47.16;96047.28;5078823;28;20073;-81
2023/01/17 00:16:52;;;;;;;18.40;9.85;;;17.00;81.00;;;17.81;47.18;96054.38;5111567;28;20465;-81
2023/01/17 01:34:21;;;;;;;18.35;9.13;;;17.30;80.30;;;18.10;46.22;96032.47;5110745;28;20039;-81
2023/01/17 01:36:47;;;;;;;19.65;10.05;;;17.30;80.00;;;18.12;46.10;96041.09;5092901;28;20050;-81
2023/01/17 01:39:13;;;;;;;17.83;9.48;;;17.30;79.70;;;18.12;46.35;96041.88;5087167;28;20043;-81
2023/01/17 01:41:39;;;;;;;16.75;10.30;;;17.30;79.80;;;18.09;46.33;96048.16;5079135;28;20051;-81
2023/01/17 01:44:57;;;;;;;14.43;9.43;;;17.30;79.80;;;18.18;46.23;96043.06;5106114;28;20043;-81
2023/01/17 01:47:29;;;;;;;14.77;9.63;;;17.30;80.00;;;18.17;46.24;96049.72;5038563;28;20055;-81
2023/01/17 01:49:55;;;;;;;16.75;8.13;;;17.40;79.90;;;18.21;46.03;96038.75;5078990;28;20039;-81
2023/01/17 01:52:22;;;;;;;16.90;9.73;;;17.40;79.90;;;18.25;46.00;96039.53;5093296;28;20040;-81
2023/01/17 01:54:58;;;;;;;19.88;9.77;;;17.40;80.00;;;18.23;45.96;96037.19;5074958;28;20036;-82
2023/01/17 01:57:28;;;;;;;15.15;9.25;;;17.40;79.90;;;18.26;46.26;96034.84;5083754;28;20047;-82
2023/01/17 01:59:58;;;;;;;16.83;9.30;;;17.50;79.90;;;18.28;45.98;96038.75;5059293;28;20049;-82
2023/01/17 02:02:26;;;;;;;16.10;9.23;;;17.50;79.80;;;18.34;45.75;96039.94;5060162;28;20036;-82
2023/01/17 02:04:52;;;;;;;15.60;9.82;;;17.50;79.80;;;18.36;45.49;96039.53;5071983;28;20043;-82
2023/01/17 02:07:22;;;;;;;16.80;9.60;;;17.50;79.80;;;18.35;45.82;96036.00;5091464;28;20414;-82
2023/01/17 02:09:49;;;;;;;18.48;9.57;;;17.50;79.70;;;18.38;45.92;96032.47;5077434;28;20414;-82
2023/01/17 02:12:15;;;;;;;20.15;9.38;;;17.50;79.80;;;18.42;45.63;96038.75;5060395;28;20051;-82
2023/01/17 02:14:41;;;;;;;12.02;8.50;;;17.60;79.90;;;18.38;46.06;96037.97;5091153;28;20040;-81
2023/01/17 02:17:45;;;;;;;13.95;9.73;;;17.60;79.70;;;18.43;45.87;96031.31;5075661;28;20501;-81
2023/01/17 02:20:32;;;;;;;14.57;9.57;;;17.60;79.70;;;18.43;45.64;96034.06;5109259;28;20093;-82
2023/01/17 02:23:29;;;;;;;12.95;8.40;;;17.60;79.70;;;18.45;45.84;96037.19;5107693;28;20126;-82
2023/01/17 02:26:31;;;;;;;14.27;8.95;;;17.60;79.80;;;18.46;45.78;96033.25;5108222;28;20040;-82
2023/01/17 02:29:15;;;;;;;17.58;9.80;;;17.60;79.70;;;18.47;45.91;96023.88;5093042;28;20036;-82
2023/01/17 02:32:09;;;;;;;15.07;9.50;;;17.60;79.90;;;18.49;45.84;96032.47;5105585;28;20040;-82
2023/01/17 02:34:56;;;;;;;14.10;9.13;;;17.60;79.70;;;18.49;45.73;96042.69;5071903;28;20169;-82
2023/01/17 02:37:33;;;;;;;15.05;8.52;;;17.60;79.60;;;18.50;45.60;96044.25;5077326;28;20070;-82
2023/01/17 02:40:07;;;;;;;18.25;9.85;;;17.70;79.80;;;18.49;45.66;96040.72;5106221;28;20047;-82
2023/01/17 02:42:37;;;;;;;16.38;10.10;;;17.60;79.80;;;18.50;45.83;96034.06;5090115;28;20059;-82
2023/01/17 02:45:04;;;;;;;14.77;8.88;;;17.70;79.80;;;18.51;45.81;96034.84;5071157;28;20547;-82
2023/01/17 02:47:30;;;;;;;14.50;9.55;;;17.70;79.80;;;18.53;45.67;96035.22;5077182;28;20039;-82
2023/01/17 02:50:11;;;;;;;13.50;8.90;;;17.70;79.70;;;18.52;45.66;96030.91;5078517;28;20043;-82
2023/01/17 02:53:02;;;;;;;16.45;9.88;;;17.70;79.70;;;18.50;45.84;96038.78;5077869;28;20036;-82
2023/01/17 02:55:56;;;;;;;14.20;9.07;;;17.70;79.70;;;18.52;45.83;96039.13;5108832;28;20482;-82
2023/01/17 02:58:49;;;;;;;12.27;7.72;;;17.70;79.60;;;18.54;45.72;96045.03;5112775;28;20183;-82
2023/01/17 03:01:24;;;;;;;12.43;8.68;;;17.70;79.80;;;18.57;45.83;96041.50;5112525;28;20043;-81
2023/01/17 03:04:03;;;;;;;15.55;9.13;;;17.70;79.90;;;18.53;45.72;96047.00;5105281;28;20068;-81
2023/01/17 03:06:38;;;;;;;14.23;8.52;;;17.70;79.80;;;18.52;45.87;96047.38;5110377;28;20508;-82
2023/01/17 03:09:05;;;;;;;16.92;9.07;;;17.60;80.00;;;18.54;45.50;96037.56;5064335;28;20051;-82
2023/01/17 03:11:31;;;;;;;16.80;9.68;;;17.60;79.80;;;18.55;45.66;96046.63;5062492;28;20099;-82
2023/01/17 03:13:57;;;;;;;13.68;9.07;;;17.70;79.70;;;18.55;45.66;96057.59;5092696;28;20084;-82
2023/01/17 03:16:27;;;;;;;16.17;8.98;;;17.70;79.60;;;18.54;45.79;96056.78;5076593;28;20105;-82
2023/01/17 03:18:53;;;;;;;13.88;9.10;;;17.70;79.60;;;18.53;45.42;96060.72;5070840;28;20113;-82
2023/01/17 03:21:20;;;;;;;15.60;9.00;;;17.70;79.60;;;18.55;45.54;96068.56;5090599;28;20046;-82
2023/01/17 03:23:46;;;;;;;13.60;9.13;;;17.70;79.50;;;18.54;45.51;96075.22;5073506;28;20039;-82
2023/01/17 03:26:15;;;;;;;14.10;9.38;;;17.60;79.50;;;18.50;45.70;96085.44;5108856;28;20040;-82
2023/01/17 03:28:41;;;;;;;13.02;8.13;;;17.60;79.70;;;18.54;45.69;96080.72;5110173;28;20035;-81
2023/01/17 03:31:07;;;;;;;15.38;9.45;;;17.60;79.90;;;18.55;45.81;96085.03;5112464;28;20043;-81
2023/01/17 03:33:34;;;;;;;12.18;8.07;;;17.70;79.80;;;18.52;45.59;96088.53;5059243;28;20043;-82
2023/01/17 03:36:01;;;;;;;15.48;8.55;;;17.70;79.70;;;18.54;45.61;96086.19;5077067;28;20059;-82
2023/01/17 03:38:27;;;;;;;15.00;9.15;;;17.70;79.50;;;18.54;45.60;96094.44;5076460;28;20154;-82
2023/01/17 03:40:53;;;;;;;13.80;8.13;;;17.70;79.50;;;18.53;45.78;96088.16;5094392;28;20047;-81
2023/01/17 03:43:19;;;;;;;15.48;8.15;;;17.70;79.70;;;18.54;45.70;96083.44;5093844;28;20063;-81
2023/01/17 03:45:50;;;;;;;12.73;8.32;;;17.70;79.70;;;18.54;45.76;96102.66;5073053;28;20048;-82
2023/01/17 03:48:17;;;;;;;12.88;7.53;;;17.60;79.80;;;18.53;45.67;96103.84;5059038;28;20040;-82
2023/01/17 03:50:43;;;;;;;15.20;7.97;;;17.60;79.70;;;18.51;45.77;96092.47;5052658;28;20039;-82
2023/01/17 03:53:09;;;;;;;14.52;8.95;;;17.60;79.70;;;18.51;45.52;96100.72;5094702;28;20040;-82
2023/01/17 03:55:36;;;;;;;19.15;9.10;;;17.60;79.90;;;18.54;45.50;96099.91;5108602;28;20040;-82
2023/01/17 03:58:01;;;;;;;12.75;8.18;;;17.60;79.90;;;18.54;45.71;96102.66;5074415;28;20044;-82
2023/01/17 04:00:28;;;;;;;13.35;8.85;;;17.60;80.00;;;18.56;45.77;96103.06;5094305;28;20042;-82
2023/01/17 04:02:54;;;;;;;15.35;8.65;;;17.60;80.00;;;18.54;45.56;96097.19;5094308;28;20035;-82
2023/01/17 04:05:20;;;;;;;13.82;8.65;;;17.60;79.90;;;18.54;45.74;96099.91;5071897;28;20032;-82
2023/01/17 04:07:46;;;;;;;14.02;8.65;;;17.60;79.90;;;18.52;45.78;96094.03;5094831;27;20516;-81
2023/01/17 04:10:12;;;;;;;14.10;8.73;;;17.60;79.90;;;18.50;45.45;96104.66;5076009;27;20047;-82
2023/01/17 04:12:38;;;;;;;13.88;9.30;;;17.50;79.90;;;18.52;45.55;96114.06;5111092;27;20035;-82
2023/01/17 04:15:05;;;;;;;12.05;8.43;;;17.50;79.90;;;18.52;45.58;96113.25;5081039;27;20042;-81
2023/01/17 04:17:31;;;;;;;13.32;7.53;;;17.60;80.00;;;18.51;45.64;96111.69;5094109;27;20046;-81
2023/01/17 04:19:57;;;;;;;13.23;8.45;;;17.50;80.00;;;18.50;45.74;96099.16;5094732;27;20039;-82
2023/01/17 04:22:23;;;;;;;11.75;7.70;;;17.50;79.90;;;18.54;45.64;96105.41;5079462;27;20039;-82
2023/01/17 04:24:50;;;;;;;11.68;7.78;;;17.60;79.90;;;18.50;45.50;96107.38;5080428;27;20031;-82
2023/01/17 04:27:16;;;;;;;13.23;8.55;;;17.50;79.90;;;18.51;45.49;96108.94;5094433;27;20482;-82
2023/01/17 04:29:42;;;;;;;16.23;8.57;;;17.50;79.80;;;18.51;45.43;96100.72;5079097;27;20133;-82
2023/01/17 04:32:08;;;;;;;15.07;8.32;;;17.50;79.80;;;18.49;45.27;96108.53;5079669;27;20053;-82
2023/01/17 04:34:34;;;;;;;11.35;7.85;;;17.50;79.80;;;18.47;45.47;96103.47;5110095;27;20056;-81
2023/01/17 04:37:00;;;;;;;14.23;8.60;;;17.50;79.80;;;18.49;45.48;96097.56;5089925;27;20031;-82
2023/01/17 04:39:27;;;;;;;13.52;8.20;;;17.40;79.70;;;18.50;45.42;96104.66;5096536;27;20047;-82
2023/01/17 04:41:53;;;;;;;9.43;7.85;;;17.50;79.80;;;18.48;45.45;96096.78;5095618;27;20189;-81
2023/01/17 04:44:19;;;;;;;13.32;7.50;;;17.50;79.80;;;18.49;45.66;96094.81;5061344;27;20035;-82
2023/01/17 04:46:45;;;;;;;11.65;7.82;;;17.50;79.80;;;18.44;45.37;96096.00;5082081;27;20043;-82
2023/01/17 04:49:11;;;;;;;13.77;8.60;;;17.50;79.60;;;18.47;45.41;96095.22;5113851;27;20382;-82
2023/01/17 04:51:37;;;;;;;16.67;8.45;;;17.40;79.70;;;18.49;45.60;96095.59;5096603;27;20043;-82
2023/01/17 04:54:03;;;;;;;11.20;7.85;;;17.50;79.90;;;18.50;45.49;96099.16;5078828;27;20622;-82
2023/01/17 04:56:29;;;;;;;11.50;7.82;;;17.50;79.90;;;18.50;45.47;96099.16;5096759;27;20039;-82
2023/01/17 04:58:57;;;;;;;12.63;7.25;;;17.40;79.70;;;18.50;45.26;96099.16;5081701;27;20095;-82
2023/01/17 05:01:23;;;;;;;12.43;7.97;;;17.50;79.80;;;18.46;45.46;96107.38;5079945;27;20057;-82
2023/01/17 05:03:49;;;;;;;11.27;7.88;;;17.40;79.70;;;18.51;45.47;96111.69;5066641;27;20035;-82
2023/01/17 05:06:15;;;;;;;13.27;7.57;;;17.50;79.80;;;18.47;45.29;96119.13;5094531;27;20042;-82
2023/01/17 05:08:41;;;;;;;11.73;8.07;;;17.40;79.70;;;18.49;45.37;96117.56;5095419;27;20050;-82
2023/01/17 05:11:08;;;;;;;12.98;8.32;;;17.50;79.80;;;18.44;45.34;96116.00;5096676;27;20378;-81
2023/01/17 05:13:34;;;;;;;12.23;8.48;;;17.50;79.80;;;18.47;45.22;96108.16;5091750;27;20443;-81
2023/01/17 05:16:00;;;;;;;13.10;7.75;;;17.40;79.60;;;18.47;45.20;96106.22;5079007;27;20036;-81
2023/01/17 05:18:26;;;;;;;10.18;7.53;;;17.40;79.50;;;18.46;45.33;96110.13;5096851;27;20084;-81
2023/01/17 05:20:52;;;;;;;11.60;8.07;;;17.40;79.80;;;18.46;45.65;96098.34;5076917;27;20062;-82
2023/01/17 05:23:18;;;;;;;11.07;7.38;;;17.40;79.90;;;18.46;45.35;96103.84;5077382;27;20046;-82
2023/01/17 05:25:44;;;;;;;13.02;8.05;;;17.40;79.80;;;18.42;45.33;96104.63;5111430;27;20043;-82
2023/01/17 05:28:11;;;;;;;12.07;7.80;;;17.40;79.70;;;18.42;45.20;96112.88;5116312;27;20091;-82
2023/01/17 05:30:38;;;;;;;11.55;7.45;;;17.40;79.70;;;18.49;45.05;96103.06;5097731;27;20099;-82
2023/01/17 05:33:04;;;;;;;11.75;7.55;;;17.40;79.50;;;18.47;45.28;96103.47;5080558;28;20043;-82
2023/01/17 05:35:31;;;;;;;12.15;8.52;;;17.40;79.80;;;18.43;45.39;96100.69;5072957;28;20039;-82
2023/01/17 05:37:57;;;;;;;10.23;7.43;;;17.50;79.80;;;18.41;45.61;96094.03;5078539;27;20043;-81
2023/01/17 05:40:26;;;;;;;15.18;8.77;;;17.40;79.70;;;18.42;45.54;96087.38;5097385;28;20584;-82
2023/01/17 05:42:54;;;;;;;11.93;7.40;;;17.40;79.70;;;18.42;45.35;96084.66;5078030;28;20031;-81
2023/01/17 05:45:22;;;;;;;11.98;7.47;;;17.40;79.70;;;18.45;45.19;96081.13;5080189;27;20080;-82
2023/01/17 05:47:50;;;;;;;11.05;7.32;;;17.40;79.80;;;18.42;45.02;96074.44;5083357;28;20050;-81
2023/01/17 05:50:24;;;;;;;14.30;8.07;;;17.40;79.50;;;18.44;45.34;96083.06;5080957;28;20050;-80
2023/01/17 05:53:05;;;;;;;12.05;7.13;;;17.40;79.70;;;18.42;45.20;96088.16;5063128;28;20039;-81
2023/01/17 05:55:31;;;;;;;10.65;6.50;;;17.40;79.60;;;18.41;45.29;96085.81;5092562;28;20398;-81
2023/01/17 05:57:58;;;;;;;14.13;8.43;;;17.40;79.60;;;18.41;45.21;96081.09;5098496;28;20039;-81
2023/01/17 06:00:24;;;;;;;11.93;7.15;;;17.40;79.70;;;18.39;45.46;96088.16;5080855;28;20054;-81
2023/01/17 06:02:55;;;;;;;9.48;6.78;;;17.40;79.70;;;18.44;45.38;96102.28;5064349;28;20039;-81
2023/01/17 06:05:21;;;;;;;11.80;6.90;;;17.40;79.70;;;18.42;45.24;96104.63;5097194;28;20035;-81
2023/01/17 06:07:47;;;;;;;10.23;7.47;;;17.40;79.80;;;18.40;45.15;96112.47;5098375;28;20065;-81
2023/01/17 06:10:14;;;;;;;12.40;8.15;;;17.30;79.50;;;18.43;45.19;96110.91;5077083;28;20047;-81
2023/01/17 06:12:42;;;;;;;11.85;7.80;;;17.30;79.60;;;18.44;45.19;96112.47;5077954;28;20083;-81
2023/01/17 06:15:11;;;;;;;11.75;7.47;;;17.30;79.60;;;18.42;45.30;96112.09;5082996;28;20059;-81
2023/01/17 06:17:38;;;;;;;11.90;7.07;;;17.40;79.80;;;18.40;45.45;96112.47;5061164;28;20035;-81
2023/01/17 06:20:05;;;;;;;10.27;7.50;;;17.30;79.80;;;18.42;45.28;96115.63;5080806;28;20498;-81
2023/01/17 06:22:32;;;;;;;11.93;7.80;;;17.40;79.70;;;18.41;44.96;96124.22;5080235;27;20059;-81
2023/01/17 06:24:58;;;;;;;12.38;6.88;;;17.30;79.50;;;18.43;45.15;96121.88;5069353;27;20559;-81
2023/01/17 06:27:24;;;;;;;11.07;7.90;;;17.30;79.60;;;18.43;45.03;96116.41;5082307;27;20027;-81
2023/01/17 06:29:50;;;;;;;11.05;7.63;;;17.30;79.50;;;18.40;45.21;96117.97;5102232;27;20062;-80
2023/01/17 06:32:16;;;;;;;11.50;7.45;;;17.30;79.80;;;18.39;45.42;96121.06;5099729;27;20047;-80
2023/01/17 06:34:42;;;;;;;10.15;7.50;;;17.30;79.80;;;18.38;45.18;96123.03;5101854;27;20035;-81
2023/01/17 06:37:09;;;;;;;20.60;8.23;;;17.30;79.70;;;18.36;45.37;96122.66;5078181;27;20057;-81
2023/01/17 06:39:34;;;;;;;12.10;7.85;;;17.30;79.80;;;18.35;45.37;96129.31;5063867;27;20039;-81
2023/01/17 06:42:01;;;;;;;12.55;8.38;;;17.20;79.50;;;18.36;45.31;96130.88;5100988;27;20039;-81
2023/01/17 06:44:27;;;;;;;13.13;8.57;;;17.20;79.70;;;18.34;45.26;96129.69;5100597;27;20043;-80
2023/01/17 06:46:56;;;;;;;11.20;7.65;;;17.20;79.60;;;18.34;45.52;96118.72;5080619;27;20044;-81
2023/01/17 06:49:21;;;;;;;11.40;8.10;;;17.20;79.90;;;18.34;45.45;96125.00;5066005;27;20053;-81
2023/01/17 06:51:48;;;;;;;12.98;8.38;;;17.30;80.10;;;18.37;45.23;96129.72;5097966;27;20032;-81
2023/01/17 06:54:15;;;;;;;10.65;7.72;;;17.20;79.60;;;18.36;44.94;96138.31;5097196;27;20483;-81
2023/01/17 06:56:41;;;;;;;15.88;9.10;;;17.20;79.70;;;18.34;45.08;96133.25;5076452;27;20043;-81
2023/01/17 06:59:07;;;;;;;11.68;8.27;;;17.20;79.60;;;18.36;45.20;96125.38;5079939;27;20107;-80
2023/01/17 07:01:33;;;;;;;13.45;8.40;;;17.20;79.70;;;18.37;45.20;96128.94;5113632;27;20427;-81
2023/01/17 07:03:59;;;;;;;12.23;8.35;;;17.10;79.70;;;18.31;45.01;96130.47;5081735;27;20019;-81
2023/01/17 07:06:27;;;;;;;11.65;8.75;;;17.20;79.70;;;18.33;45.19;96139.91;5055895;27;20040;-80
2023/01/17 07:08:55;;;;;;;9.95;7.10;;;17.20;79.70;;;18.33;45.00;96142.63;5104906;28;20063;-81
2023/01/17 07:11:21;;;;;;;12.40;7.93;;;17.20;79.70;;;18.35;45.00;96145.00;5095083;28;20055;-81
2023/01/17 07:13:50;;;;;;;12.10;7.75;;;17.10;79.60;;;18.32;45.12;96145.75;5090154;28;20082;-81
2023/01/17 07:16:16;;;;;;;17.52;8.60;;;17.20;79.70;;;18.32;44.89;96141.06;5093611;28;20036;-81
2023/01/17 07:18:42;;;;;;;11.63;7.75;;;17.20;79.70;;;18.31;45.22;96139.50;5088674;28;20085;-81
2023/01/17 07:21:13;;;;;;;12.65;8.00;;;17.20;79.60;;;18.32;45.07;96135.59;5106196;27;20042;-81
2023/01/17 07:23:39;;;;;;;10.80;7.93;;;17.20;79.70;;;18.32;45.09;96135.59;5106620;28;20046;-81
2023/01/17 07:26:05;;;;;;;12.07;8.93;;;17.10;79.50;;;18.32;45.05;96135.59;5092860;28;20040;-81
2023/01/17 07:28:32;;;;;;;13.90;8.07;;;17.10;79.60;;;18.32;44.99;96135.59;5074342;28;20449;-81
2023/01/17 07:30:58;;;;;;;12.82;8.43;;;17.10;79.80;;;18.32;45.30;96135.59;5059488;28;20090;-81
2023/01/17 07:33:24;;;;;;;10.70;7.85;;;17.20;79.70;;;18.33;45.27;96130.88;5059028;28;20035;-81
2023/01/17 07:35:50;;;;;;;12.05;8.52;;;17.10;79.80;;;18.28;45.18;96129.31;5077187;28;20701;-81
2023/01/17 07:38:18;;;;;;;11.70;7.03;;;17.10;79.70;;;18.29;45.15;96132.81;5086773;28;20040;-81
2023/01/17 07:40:44;;;;;;;13.48;8.30;;;17.10;79.60;;;18.28;45.03;96132.03;5076564;28;20049;-81
2023/01/17 07:43:13;;;;;;;12.10;7.53;;;17.10;79.50;;;18.34;44.75;96135.19;5074536;28;20095;-81
2023/01/17 07:45:45;;;;;;;12.07;8.60;;;17.10;79.50;;;18.28;44.98;96134.78;5075264;28;20043;-81
2023/01/17 07:48:11;;;;;;;13.65;8.77;;;17.10;79.80;;;18.30;45.33;96146.16;5090315;28;20627;-81
2023/01/17 07:50:38;;;;;;;11.27;8.77;;;17.10;79.90;;;18.25;45.13;96149.28;5056348;28;20043;-81
2023/01/17 07:53:04;;;;;;;12.10;8.57;;;17.20;79.60;;;18.31;44.95;96147.72;5091268;28;20442;-80
2023/01/17 07:55:30;;;;;;;11.82;8.20;;;17.10;79.50;;;18.28;45.04;96147.72;5093535;28;20043;-81
2023/01/17 07:57:56;;;;;;;12.55;8.80;;;17.10;79.60;;;18.29;44.81;96155.56;5076695;28;20055;-81
2023/01/17 08:00:25;;;;;;;13.38;8.50;;;17.10;79.50;;;18.27;45.16;96157.94;5073471;28;20031;-81
2023/01/17 08:02:56;;;;;;;10.55;7.60;;;17.20;79.60;;;18.28;45.28;96154.00;5054957;28;20123;-80
2023/01/17 08:05:22;;;;;;;10.32;7.55;;;17.20;79.70;;;18.31;45.00;96163.41;5090991;28;20119;-81
2023/01/17 08:07:48;;;;;;;11.23;8.27;;;17.10;79.60;;;18.29;45.04;96160.25;5095860;27;20063;-81
2023/01/17 08:10:17;;;;;;;11.57;8.23;;;17.10;79.50;;;18.30;44.96;96170.88;5115103;27;20046;-80
2023/01/17 08:12:50;;;;;;;13.55;8.35;;;17.10;79.50;;;18.28;45.09;96169.69;5096418;27;20450;-82
2023/01/17 08:15:16;;;;;;;10.98;7.95;;;17.10;79.40;;;18.32;44.86;96174.00;5079625;27;20589;-81
2023/01/17 08:17:52;;;;;;;11.52;8.48;;;17.10;79.40;;;18.31;44.70;96179.88;5061930;27;20074;-81
2023/01/17 08:20:18;;;;;;;13.40;8.27;;;17.10;79.40;;;18.30;44.79;96178.31;5093468;27;20050;-81
2023/01/17 08:22:44;;;;;;;12.23;8.60;;;17.10;79.30;;;18.31;44.66;96186.13;5094081;27;20031;-81
2023/01/17 08:25:11;;;;;;;10.35;7.50;;;17.10;79.30;;;18.30;44.95;96187.31;5078065;27;20047;-81
2023/01/17 08:27:37;;;;;;;10.77;7.72;;;17.10;79.60;;;18.31;44.81;96185.38;5076078;27;20465;-81
2023/01/17 08:30:05;;;;;;;12.63;8.25;;;17.10;79.60;;;18.31;44.67;96177.91;5081972;27;20041;-83
2023/01/17 08:32:31;;;;;;;10.35;8.25;;;17.10;79.40;;;18.32;44.86;96184.19;5061284;27;20115;-83
2023/01/17 08:34:57;;;;;;;12.65;8.23;;;17.10;79.20;;;18.32;44.75;96187.72;5100670;27;20035;-83
2023/01/17 08:37:23;;;;;;;10.18;8.00;;;17.10;79.40;;;18.35;44.47;96186.94;5061064;27;20041;-82
2023/01/17 08:39:49;;;;;;;10.95;8.00;;;17.10;79.30;;;18.34;44.73;96187.31;5083268;27;20039;-82
2023/01/17 08:42:15;;;;;;;10.90;7.40;;;17.10;79.40;;;18.34;44.71;96187.31;5077781;27;20067;-83
2023/01/17 08:44:42;;;;;;;12.23;8.90;;;17.20;79.50;;;18.38;44.78;96190.88;5112332;27;20031;-82
2023/01/17 08:47:09;;;;;;;13.38;9.23;;;17.20;79.50;;;18.36;44.72;96187.72;5081042;27;20035;-82
2023/01/17 08:49:35;;;;;;;11.40;8.35;;;17.20;79.30;;;18.41;44.60;96195.59;5130202;27;20042;-82
2023/01/17 08:52:01;;;;;;;16.70;9.98;;;17.20;79.30;;;18.41;44.68;96201.84;5079997;27;20062;-82
2023/01/17 08:54:27;;;;;;;11.15;8.20;;;17.20;79.20;;;18.44;44.55;96211.25;5098139;27;20039;-82
2023/01/17 08:56:54;;;;;;;12.40;8.93;;;17.20;79.20;;;18.42;44.69;96203.44;5095349;27;20037;-83
2023/01/17 08:59:21;;;;;;;12.07;8.65;;;17.20;80.10;;;18.43;44.81;96209.72;5109295;27;20031;-83
2023/01/17 09:01:47;;;;;;;13.80;8.68;;;17.20;79.50;;;18.40;44.68;96216.75;5088246;27;20043;-82
2023/01/17 09:04:15;;;;;;;12.02;9.00;;;17.20;79.20;;;18.42;44.49;96219.91;5095412;27;20058;-82
2023/01/17 09:06:44;;;;;;;23.15;9.75;;;17.20;79.10;;;18.39;44.55;96208.91;5079887;27;20050;-82
2023/01/17 09:09:10;;;;;;;15.75;10.18;;;17.20;78.90;;;18.40;44.46;96214.00;5094574;27;20051;-82
2023/01/17 09:11:36;;;;;;;17.05;10.50;;;17.20;79.10;;;18.42;44.52;96216.38;5090549;27;20052;-82
2023/01/17 09:14:03;;;;;;;17.77;10.98;;;17.20;79.00;;;18.40;44.82;96222.25;5061564;27;20078;-82
2023/01/17 09:16:29;;;;;;;21.55;12.60;;;17.30;79.40;;;18.41;44.87;96215.56;5081821;27;20043;-82
2023/01/17 09:18:55;;;;;;;17.60;11.90;;;17.30;79.30;;;18.36;44.35;96213.22;5095676;27;20088;-81
2023/01/17 09:21:21;;;;;;;19.25;11.95;;;17.30;78.70;;;18.25;44.33;96208.88;5063122;27;20406;-83
2023/01/17 09:23:48;;;;;;;16.23;10.07;;;17.30;78.20;;;18.23;44.05;96218.25;5094669;28;20043;-82
2023/01/17 09:26:26;;;;;;;19.48;12.05;;;17.20;77.60;;;18.25;43.59;96215.16;5078835;27;20035;-82
2023/01/17 09:29:31;;;;;;;18.15;11.55;;;17.30;77.20;;;18.25;43.50;96214.38;5098515;27;20031;-82
2023/01/17 09:31:59;;;;;;;19.65;11.98;;;17.20;77.00;;;18.31;43.04;96212.81;5079713;27;20075;-82
2023/01/17 09:34:38;;;;;;;23.77;12.63;;;17.20;76.30;;;18.29;42.90;96212.41;5103176;27;20100;-83
2023/01/17 09:37:12;;;;;;;18.88;12.57;;;17.30;76.30;;;18.26;42.74;96210.44;5081600;28;20471;-82
2023/01/17 09:39:39;;;;;;;19.17;12.90;;;17.20;75.60;;;18.26;42.46;96213.19;5080248;28;20044;-83
2023/01/17 09:42:35;;;;;;;16.33;12.20;;;17.20;75.60;;;18.30;42.28;96211.25;5077995;28;20054;-82
2023/01/17 09:45:01;;;;;;;23.40;12.98;;;17.20;75.50;;;18.31;42.07;96207.31;5104244;27;20035;-82
2023/01/17 09:47:42;;;;;;;19.67;13.00;;;17.20;75.40;;;18.30;42.07;96211.25;5087191;28;20045;-83
2023/01/17 09:50:54;;;;;;;21.15;13.27;;;17.30;75.10;;;18.29;41.90;96204.16;5082326;28;20039;-83
2023/01/17 09:53:21;;;;;;;19.08;13.48;;;17.30;74.90;;;18.30;41.96;96206.53;5083613;28;20104;-82
2023/01/17 09:55:55;;;;;;;24.58;15.25;;;17.20;74.50;;;18.26;41.72;96210.44;5061750;28;20119;-82
2023/01/17 09:59:17;;;;;;;19.42;13.75;;;17.30;74.40;;;18.25;41.52;96214.38;5081419;27;20110;-82
2023/01/17 10:01:58;;;;;;;24.92;14.27;;;17.30;74.00;;;18.23;41.28;96201.03;5114314;27;20553;-82
2023/01/17 10:05:20;;;;;;;21.25;15.00;;;17.20;73.60;;;18.27;41.10;96207.31;5116218;27;20038;-82
2023/01/17 10:08:25;;;;;;;19.27;14.40;;;17.30;73.50;;;18.14;41.13;96203.31;5134083;27;20126;-83
2023/01/17 10:11:18;;;;;;;22.85;14.65;;;17.40;72.90;;;18.25;41.21;96217.88;5097480;27;20070;-83
2023/01/17 10:14:35;;;;;;;24.83;14.60;;;17.30;73.40;;;18.21;41.16;96209.63;5133423;27;20044;-83
2023/01/17 10:17:30;;;;;;;19.60;14.95;;;17.40;73.20;;;18.28;40.83;96222.59;5048919;28;20174;-82
2023/01/17 10:20:32;;;;;;;23.02;15.32;;;17.30;72.90;;;18.23;40.62;96223.75;5048197;28;20044;-83
2023/01/17 10:23:16;;;;;;;23.75;15.02;;;17.30;72.60;;;18.22;40.52;96222.19;5130710;27;20466;-83
2023/01/17 10:25:53;;;;;;;22.95;15.02;;;17.30;72.20;;;18.19;40.34;96225.72;5138490;27;20672;-83
2023/01/17 10:28:26;;;;;;;20.95;14.15;;;17.30;71.90;;;18.32;39.88;96219.84;5111346;27;20095;-83
2023/01/17 10:31:05;;;;;;;23.33;15.77;;;17.30;71.90;;;18.22;40.17;96224.16;5102991;27;20114;-83
2023/01/17 10:34:02;;;;;;;21.83;14.20;;;17.30;71.80;;;18.17;39.91;96227.28;5067943;27;20452;-83
2023/01/17 10:36:41;;;;;;;30.92;15.45;;;17.30;71.60;;;18.15;40.11;96233.13;5103297;27;20914;-82
2023/01/17 10:39:24;;;;;;;24.52;14.80;;;17.40;71.50;;;18.15;39.78;96232.34;5099365;27;20077;-83
2023/01/17 10:41:57;;;;;;;18.50;13.88;;;17.30;71.10;;;18.12;40.02;96230.38;5111629;27;20041;-83
2023/01/17 10:44:55;;;;;;;19.92;14.48;;;17.40;71.10;;;18.19;39.91;96231.19;5102775;27;20039;-83
2023/01/17 10:47:23;;;;;;;19.95;14.80;;;17.40;70.80;;;18.13;39.94;96229.19;5098999;27;20035;-83
2023/01/17 10:49:51;;;;;;;22.52;13.93;;;17.40;70.90;;;18.15;39.50;96235.88;5080882;27;20070;-83
2023/01/17 10:52:38;;;;;;;19.45;14.50;;;17.40;70.60;;;18.14;39.92;96239.00;5082079;27;20058;-83
2023/01/17 10:55:29;;;;;;;19.08;12.93;;;17.40;70.90;;;18.08;39.56;96232.31;5136605;27;20534;-83
2023/01/17 10:57:57;;;;;;;15.77;12.30;;;17.40;70.50;;;18.12;39.53;96231.16;5118643;27;20039;-83
2023/01/17 11:01:00;;;;;;;19.55;13.00;;;17.40;70.30;;;17.97;39.48;96232.28;5099830;27;20092;-83
2023/01/17 11:03:27;;;;;;;20.25;13.50;;;17.40;70.10;;;18.04;39.77;96237.00;5103645;27;20047;-83
2023/01/17 11:06:23;;;;;;;18.48;13.20;;;17.40;70.10;;;17.99;39.79;96247.16;5081875;27;20038;-83
2023/01/17 11:09:01;;;;;;;17.95;12.70;;;17.50;70.00;;;17.96;39.60;96245.22;5097075;27;20758;-83
2023/01/17 11:11:32;;;;;;;21.73;13.27;;;17.50;70.00;;;17.94;39.72;96250.28;5099383;27;20106;-83
2023/01/17 11:14:19;;;;;;;17.15;12.43;;;17.40;69.90;;;17.97;39.67;96254.22;5086350;27;20074;-83
2023/01/17 11:16:45;;;;;;;15.50;12.55;;;17.40;69.90;;;17.97;39.60;96256.97;5101027;27;20123;-83
2023/01/17 11:19:22;;;;;;;16.75;11.73;;;17.40;69.90;;;17.92;39.69;96257.31;5084660;27;20028;-83
2023/01/17 11:21:53;;;;;;;16.30;11.60;;;17.40;69.90;;;17.90;39.66;96256.91;5111002;27;20037;-83
2023/01/17 11:24:25;;;;;;;13.55;11.43;;;17.40;69.90;;;17.92;39.52;96255.34;5085009;27;20035;-83
2023/01/17 11:26:51;;;;;;;12.63;9.95;;;17.40;69.90;;;17.92;39.55;96255.34;5082726;27;20092;-83
2023/01/17 11:29:30;;;;;;;14.90;9.25;;;17.40;69.80;;;17.93;39.57;96254.19;5087606;27;20465;-83
2023/01/17 11:31:56;;;;;;;13.50;9.68;;;17.40;69.90;;;17.91;39.37;96242.03;5115363;27;20570;-83
2023/01/17 11:34:30;;;;;;;16.15;9.00;;;17.40;69.60;;;17.89;39.45;96245.16;5083968;27;20049;-83
2023/01/17 11:37:18;;;;;;;14.07;8.93;;;17.40;69.40;;;17.88;39.10;96242.78;5086121;27;20083;-83
2023/01/17 11:39:47;;;;;;;12.63;8.25;;;17.40;69.40;;;17.92;39.12;96235.38;5080872;27;20036;-83
2023/01/17 11:42:34;;;;;;;13.00;9.20;;;17.40;69.30;;;17.91;39.41;96242.84;5068037;27;20114;-82
2023/01/17 11:45:37;;;;;;;10.75;7.88;;;17.40;69.50;;;17.88;39.50;96229.84;5094785;27;20582;-83
2023/01/17 11:48:11;;;;;;;12.02;8.32;;;17.40;69.40;;;17.93;39.04;96240.47;5016846;28;20048;-82
2023/01/17 11:50:46;;;;;;;10.70;7.60;;;17.40;69.40;;;17.91;38.95;96234.59;5104117;27;20134;-82
2023/01/17 11:53:18;;;;;;;10.95;6.80;;;17.40;69.30;;;17.91;39.22;96239.28;5079634;27;20051;-83